Impacts METAR Board
IDs:

KAUS - Austin/Bergstrom Int, TX, US

Updated at: 0500 UTC 19 Aug 2019
Potential Impact None Slight Moderate High
Time 18/17Z 18/18Z 18/19Z 18/20Z 18/21Z 18/22Z 18/23Z 19/00Z 19/01Z 19/02Z 19/03Z 19/04Z 19/05Z
Temp93 96 98 99 101 101 101 100 97 92 89 86 84
Dewpt72 70 69 68 68 67 67 67 70 69 71 71 73
Altim29.91 29.89 29.88 29.86 29.84 29.82 29.81 29.82 29.82 29.85 29.88 29.90 29.94
VIS10 10 10 10 10 10 10 10 10 10 10 10 10
CIG-- -- -- -- -- -- -- -- -- -- -- -- --
CoverFEWFEWFEWFEWFEWFEWFEWFEWSCTFEWFEWFEWFEW
FltCatVFRVFRVFRVFRVFRVFRVFRVFRVFRVFRVFRVFRVFR
WX--------------------------
WDir190190170170170190200160140150160180170
WSpd10 14 12 7 14 10 11 8 13 15 12 12 10
WGst19 20 -- 18 -- -- -- -- -- -- -- 23 --
Raw hourly METARs
KAUS 181653Z 19010G19KT 10SM FEW048 34/22 A2991 RMK AO2 SLP115 T03390222 $
KAUS 181753Z 19014G20KT 10SM FEW048 36/21 A2989 RMK AO2 SLP109 T03560211 10356 20261 58005 $
KAUS 181853Z 17012KT 10SM FEW065 37/21 A2988 RMK AO2 SLP104 T03670206 $
KAUS 181953Z 17007G18KT 110V210 10SM FEW070 37/20 A2986 RMK AO2 SLP098 T03720200 $
KAUS 182053Z COR 17014KT 10SM FEW070 38/20 A2984 RMK AO2 SLP090 T03830200 58018 $
KAUS 182153Z 19010KT 10SM FEW075 38/19 A2982 RMK AO2 SLP084 T03830194 $
KAUS 182253Z 20011KT 10SM FEW075 38/19 A2981 RMK AO2 SLP081 T03830194 $
KAUS 182353Z 16008KT 10SM FEW075 38/19 A2982 RMK AO2 SLP082 T03780194 10389 20356 55008 $
KAUS 190053Z 14013KT 10SM SCT080 SCT200 36/21 A2982 RMK AO2 SLP085 T03610211 $
KAUS 190153Z 15015KT 10SM FEW080 FEW200 33/21 A2985 RMK AO2 SLP094 T03330206 $
KAUS 190253Z 16012KT 10SM FEW200 32/22 A2988 RMK AO2 SLP104 T03170217 53021 $
KAUS 190353Z 18012G23KT 10SM FEW200 30/22 A2990 RMK AO2 SLP112 T03000217 $
KAUS 190453Z 17010KT 10SM FEW200 29/23 A2994 RMK AO2 SLP124 T02890228 $



Page loaded:  05:53 UTC  |   10:53 PM Pacific  |   11:53 PM Mountain  |   12:53 AM Central  |   01:53 AM Eastern

 

ADVISORIES

FORECASTS

FORECASTS

OBSERVATIONS

USER TOOLS

ABOUT US